sensor_id;sensor_type;location;lat;lon;timestamp;pressure;altitude;pressure_sealevel;temperature;humidity
13387;BME280;6763;48.524;9.044;2023-05-20T00:00:44;97869.47;;;16.71;50.79
13387;BME280;6763;48.524;9.044;2023-05-20T00:03:12;97866.16;;;16.67;51.26
13387;BME280;6763;48.524;9.044;2023-05-20T00:05:37;97868.03;;;16.64;51.09
13387;BME280;6763;48.524;9.044;2023-05-20T00:08:03;97870.66;;;16.64;50.98
13387;BME280;6763;48.524;9.044;2023-05-20T00:10:31;97861.91;;;16.65;50.98
13387;BME280;6763;48.524;9.044;2023-05-20T00:13:09;97858.31;;;16.67;50.97
13387;BME280;6763;48.524;9.044;2023-05-20T00:15:37;97860.84;;;16.69;51.10
13387;BME280;6763;48.524;9.044;2023-05-20T00:18:06;97863.38;;;16.70;50.89
13387;BME280;6763;48.524;9.044;2023-05-20T00:20:34;97859.97;;;16.70;50.75
13387;BME280;6763;48.524;9.044;2023-05-20T00:23:00;97861.50;;;16.74;50.84
13387;BME280;6763;48.524;9.044;2023-05-20T00:25:25;97858.03;;;16.73;50.63
13387;BME280;6763;48.524;9.044;2023-05-20T00:27:50;97851.91;;;16.74;50.40
13387;BME280;6763;48.524;9.044;2023-05-20T00:30:16;97853.66;;;16.74;50.87
13387;BME280;6763;48.524;9.044;2023-05-20T00:32:42;97857.34;;;16.70;50.42
13387;BME280;6763;48.524;9.044;2023-05-20T00:35:08;97841.66;;;16.70;50.84
13387;BME280;6763;48.524;9.044;2023-05-20T00:37:38;97857.34;;;16.70;51.00
13387;BME280;6763;48.524;9.044;2023-05-20T00:40:08;97849.50;;;16.70;50.55
13387;BME280;6763;48.524;9.044;2023-05-20T00:42:38;97852.03;;;16.71;50.59
13387;BME280;6763;48.524;9.044;2023-05-20T00:45:10;97845.06;;;16.72;50.91
13387;BME280;6763;48.524;9.044;2023-05-20T00:47:42;97845.06;;;16.72;50.79
13387;BME280;6763;48.524;9.044;2023-05-20T00:50:09;97838.97;;;16.71;50.98
13387;BME280;6763;48.524;9.044;2023-05-20T00:52:37;97838.88;;;16.73;51.23
13387;BME280;6763;48.524;9.044;2023-05-20T00:55:03;97841.59;;;16.71;51.04
13387;BME280;6763;48.524;9.044;2023-05-20T00:57:32;97837.94;;;16.76;50.72
13387;BME280;6763;48.524;9.044;2023-05-20T00:59:57;97834.41;;;16.77;50.99
13387;BME280;6763;48.524;9.044;2023-05-20T01:02:32;97832.63;;;16.77;50.89
13387;BME280;6763;48.524;9.044;2023-05-20T01:05:02;97840.47;;;16.77;51.19
13387;BME280;6763;48.524;9.044;2023-05-20T01:07:30;97835.38;;;16.74;51.00
13387;BME280;6763;48.524;9.044;2023-05-20T01:09:56;97831.03;;;16.73;51.21
13387;BME280;6763;48.524;9.044;2023-05-20T01:12:25;97834.59;;;16.72;51.18
13387;BME280;6763;48.524;9.044;2023-05-20T01:14:58;97825.03;;;16.71;51.17
13387;BME280;6763;48.524;9.044;2023-05-20T01:17:26;97823.22;;;16.73;51.24
13387;BME280;6763;48.524;9.044;2023-05-20T01:19:57;97818.84;;;16.73;51.20
13387;BME280;6763;48.524;9.044;2023-05-20T01:22:28;97816.31;;;16.72;50.98
13387;BME280;6763;48.524;9.044;2023-05-20T01:24:55;97819.78;;;16.72;51.06
13387;BME280;6763;48.524;9.044;2023-05-20T01:27:21;97808.38;;;16.73;51.13
13387;BME280;6763;48.524;9.044;2023-05-20T01:29:49;97814.53;;;16.72;51.19
13387;BME280;6763;48.524;9.044;2023-05-20T01:32:21;97814.59;;;16.71;51.32
13387;BME280;6763;48.524;9.044;2023-05-20T01:34:51;97807.81;;;16.67;51.34
13387;BME280;6763;48.524;9.044;2023-05-20T01:37:18;97807.94;;;16.64;51.37
13387;BME280;6763;48.524;9.044;2023-05-20T01:39:44;97808.84;;;16.63;51.11
13387;BME280;6763;48.524;9.044;2023-05-20T01:42:10;97807.16;;;16.62;51.34
13387;BME280;6763;48.524;9.044;2023-05-20T01:44:38;97807.94;;;16.64;51.31
13387;BME280;6763;48.524;9.044;2023-05-20T01:47:04;97814.78;;;16.66;51.11
13387;BME280;6763;48.524;9.044;2023-05-20T01:49:29;97809.47;;;16.68;51.19
13387;BME280;6763;48.524;9.044;2023-05-20T01:51:56;97809.44;;;16.69;51.15
13387;BME280;6763;48.524;9.044;2023-05-20T01:54:21;97814.59;;;16.71;51.21
13387;BME280;6763;48.524;9.044;2023-05-20T01:56:47;97809.44;;;16.69;51.04
13387;BME280;6763;48.524;9.044;2023-05-20T01:59:12;97799.75;;;16.71;51.00
13387;BME280;6763;48.524;9.044;2023-05-20T02:01:37;97807.47;;;16.74;51.26
13387;BME280;6763;48.524;9.044;2023-05-20T02:04:03;97801.34;;;16.76;51.09
13387;BME280;6763;48.524;9.044;2023-05-20T02:06:29;97798.66;;;16.77;51.00
13387;BME280;6763;48.524;9.044;2023-05-20T02:08:54;97805.50;;;16.80;51.00
13387;BME280;6763;48.524;9.044;2023-05-20T02:11:19;97805.44;;;16.81;51.15
13387;BME280;6763;48.524;9.044;2023-05-20T02:13:48;97805.38;;;16.83;51.05
13387;BME280;6763;48.524;9.044;2023-05-20T02:16:14;97794.94;;;16.83;50.93
13387;BME280;6763;48.524;9.044;2023-05-20T02:18:39;97804.53;;;16.82;51.07
13387;BME280;6763;48.524;9.044;2023-05-20T02:21:07;97809.75;;;16.82;51.17
13387;BME280;6763;48.524;9.044;2023-05-20T02:23:33;97811.59;;;16.80;51.21
13387;BME280;6763;48.524;9.044;2023-05-20T02:26:02;97808.00;;;16.83;51.34
13387;BME280;6763;48.524;9.044;2023-05-20T02:28:27;97803.75;;;16.80;50.85
13387;BME280;6763;48.524;9.044;2023-05-20T02:31:05;97801.91;;;16.82;51.23
13387;BME280;6763;48.524;9.044;2023-05-20T02:33:33;97798.44;;;16.82;50.90
13387;BME280;6763;48.524;9.044;2023-05-20T02:36:07;97799.31;;;16.82;51.13
13387;BME280;6763;48.524;9.044;2023-05-20T02:38:32;97803.63;;;16.83;51.27
13387;BME280;6763;48.524;9.044;2023-05-20T02:40:58;97798.53;;;16.80;51.36
13387;BME280;6763;48.524;9.044;2023-05-20T02:43:24;97810.88;;;16.77;51.50
13387;BME280;6763;48.524;9.044;2023-05-20T02:45:51;97815.44;;;16.71;51.52
13387;BME280;6763;48.524;9.044;2023-05-20T02:48:16;97815.69;;;16.65;51.53
13387;BME280;6763;48.524;9.044;2023-05-20T02:50:42;97819.25;;;16.64;51.65
13387;BME280;6763;48.524;9.044;2023-05-20T02:53:09;97814.22;;;16.60;51.72
13387;BME280;6763;48.524;9.044;2023-05-20T02:55:35;97816.81;;;16.60;51.52
13387;BME280;6763;48.524;9.044;2023-05-20T02:58:04;97811.78;;;16.55;51.95
13387;BME280;6763;48.524;9.044;2023-05-20T03:00:29;97807.47;;;16.54;51.99
13387;BME280;6763;48.524;9.044;2023-05-20T03:02:55;97807.41;;;16.56;51.96
13387;BME280;6763;48.524;9.044;2023-05-20T03:05:21;97810.00;;;16.56;51.99
13387;BME280;6763;48.524;9.044;2023-05-20T03:07:46;97805.78;;;16.53;52.26
13387;BME280;6763;48.524;9.044;2023-05-20T03:10:13;97798.72;;;16.55;51.87
13387;BME280;6763;48.524;9.044;2023-05-20T03:12:38;97809.28;;;16.52;52.03
13387;BME280;6763;48.524;9.044;2023-05-20T03:15:04;97805.84;;;16.50;51.80
13387;BME280;6763;48.524;9.044;2023-05-20T03:17:30;97803.31;;;16.49;52.30
13387;BME280;6763;48.524;9.044;2023-05-20T03:19:55;97800.75;;;16.47;51.95
13387;BME280;6763;48.524;9.044;2023-05-20T03:22:21;97806.78;;;16.49;52.16
13387;BME280;6763;48.524;9.044;2023-05-20T03:24:46;97801.56;;;16.49;52.18
13387;BME280;6763;48.524;9.044;2023-05-20T03:27:13;97806.72;;;16.51;52.22
13387;BME280;6763;48.524;9.044;2023-05-20T03:29:41;97808.47;;;16.50;52.32
13387;BME280;6763;48.524;9.044;2023-05-20T03:32:06;97811.28;;;16.46;52.42
13387;BME280;6763;48.524;9.044;2023-05-20T03:34:32;97805.31;;;16.42;52.56
13387;BME280;6763;48.524;9.044;2023-05-20T03:37:04;97802.72;;;16.42;52.74
13387;BME280;6763;48.524;9.044;2023-05-20T03:39:30;97798.53;;;16.38;52.71
13387;BME280;6763;48.524;9.044;2023-05-20T03:41:55;97805.53;;;16.38;52.83
13387;BME280;6763;48.524;9.044;2023-05-20T03:44:20;97810.69;;;16.39;52.72
13387;BME280;6763;48.524;9.044;2023-05-20T03:46:46;97810.75;;;16.38;52.69
13387;BME280;6763;48.524;9.044;2023-05-20T03:49:11;97807.22;;;16.39;52.80
13387;BME280;6763;48.524;9.044;2023-05-20T03:51:42;97805.31;;;16.42;52.59
13387;BME280;6763;48.524;9.044;2023-05-20T03:54:17;97799.13;;;16.45;52.71
13387;BME280;6763;48.524;9.044;2023-05-20T03:56:43;97799.84;;;16.48;52.64
13387;BME280;6763;48.524;9.044;2023-05-20T03:59:11;97800.63;;;16.50;52.66
13387;BME280;6763;48.524;9.044;2023-05-20T04:01:36;97802.28;;;16.53;52.50
13387;BME280;6763;48.524;9.044;2023-05-20T04:04:02;97797.03;;;16.54;52.51
13387;BME280;6763;48.524;9.044;2023-05-20T04:06:27;97795.13;;;16.58;52.53
13387;BME280;6763;48.524;9.044;2023-05-20T04:08:53;97801.06;;;16.61;52.33
13387;BME280;6763;48.524;9.044;2023-05-20T04:11:18;97800.09;;;16.64;52.53
13387;BME280;6763;48.524;9.044;2023-05-20T04:13:44;97797.41;;;16.65;52.25
13387;BME280;6763;48.524;9.044;2023-05-20T04:16:09;97794.75;;;16.67;52.07
13387;BME280;6763;48.524;9.044;2023-05-20T04:18:34;97798.97;;;16.69;52.23
13387;BME280;6763;48.524;9.044;2023-05-20T04:21:03;97791.06;;;16.71;52.37
13387;BME280;6763;48.524;9.044;2023-05-20T04:23:29;97791.78;;;16.74;52.67
13387;BME280;6763;48.524;9.044;2023-05-20T04:25:54;97787.34;;;16.77;52.25
13387;BME280;6763;48.524;9.044;2023-05-20T04:28:20;97801.00;;;16.83;52.43
13387;BME280;6763;48.524;9.044;2023-05-20T04:30:48;97800.72;;;16.89;52.21
13387;BME280;6763;48.524;9.044;2023-05-20T04:33:14;97800.38;;;16.97;52.11
13387;BME280;6763;48.524;9.044;2023-05-20T04:35:40;97792.06;;;17.07;52.22
13387;BME280;6763;48.524;9.044;2023-05-20T04:38:06;97788.22;;;17.16;52.19
13387;BME280;6763;48.524;9.044;2023-05-20T04:40:32;97789.50;;;17.26;51.85
13387;BME280;6763;48.524;9.044;2023-05-20T04:43:01;97786.41;;;17.36;51.71
13387;BME280;6763;48.524;9.044;2023-05-20T04:45:26;97791.22;;;17.46;51.95
13387;BME280;6763;48.524;9.044;2023-05-20T04:47:51;97793.44;;;17.55;51.76
13387;BME280;6763;48.524;9.044;2023-05-20T04:50:17;97790.41;;;17.64;51.44
13387;BME280;6763;48.524;9.044;2023-05-20T04:52:42;97799.56;;;17.72;51.22
13387;BME280;6763;48.524;9.044;2023-05-20T04:55:09;97803.53;;;17.81;51.48
13387;BME280;6763;48.524;9.044;2023-05-20T04:57:35;97797.03;;;17.89;51.55
13387;BME280;6763;48.524;9.044;2023-05-20T05:00:03;97796.56;;;17.98;51.12
13387;BME280;6763;48.524;9.044;2023-05-20T05:02:31;97790.19;;;18.04;50.64
13387;BME280;6763;48.524;9.044;2023-05-20T05:04:56;97788.06;;;18.12;50.85
13387;BME280;6763;48.524;9.044;2023-05-20T05:07:22;97789.69;;;18.15;50.43
13387;BME280;6763;48.524;9.044;2023-05-20T05:09:47;97783.19;;;18.22;50.65
13387;BME280;6763;48.524;9.044;2023-05-20T05:12:12;97773.19;;;18.30;50.57
13387;BME280;6763;48.524;9.044;2023-05-20T05:14:38;97777.16;;;18.38;50.21
13387;BME280;6763;48.524;9.044;2023-05-20T05:17:03;97769.81;;;18.45;50.00
13387;BME280;6763;48.524;9.044;2023-05-20T05:19:28;97771.25;;;18.52;49.68
13387;BME280;6763;48.524;9.044;2023-05-20T05:21:54;97775.25;;;18.59;49.65
13387;BME280;6763;48.524;9.044;2023-05-20T05:24:19;97772.28;;;18.65;49.50
13387;BME280;6763;48.524;9.044;2023-05-20T05:26:44;97770.31;;;18.70;49.49
13387;BME280;6763;48.524;9.044;2023-05-20T05:29:10;97767.44;;;18.75;49.24
13387;BME280;6763;48.524;9.044;2023-05-20T05:31:35;97772.44;;;18.79;49.13
13387;BME280;6763;48.524;9.044;2023-05-20T05:34:00;97769.59;;;18.84;49.31
13387;BME280;6763;48.524;9.044;2023-05-20T05:36:26;97771.13;;;18.88;49.17
13387;BME280;6763;48.524;9.044;2023-05-20T05:38:51;97767.34;;;18.93;48.91
13387;BME280;6763;48.524;9.044;2023-05-20T05:41:16;97765.50;;;18.95;48.95
13387;BME280;6763;48.524;9.044;2023-05-20T05:43:42;97763.63;;;18.97;48.36
13387;BME280;6763;48.524;9.044;2023-05-20T05:46:07;97759.84;;;19.03;48.54
13387;BME280;6763;48.524;9.044;2023-05-20T05:48:34;97765.78;;;19.06;48.22
13387;BME280;6763;48.524;9.044;2023-05-20T05:51:00;97761.13;;;19.11;48.37
13387;BME280;6763;48.524;9.044;2023-05-20T05:53:25;97764.25;;;19.18;48.41
13387;BME280;6763;48.524;9.044;2023-05-20T05:55:50;97757.84;;;19.24;48.28
13387;BME280;6763;48.524;9.044;2023-05-20T05:58:16;97759.31;;;19.29;48.10
13387;BME280;6763;48.524;9.044;2023-05-20T06:00:41;97761.50;;;19.37;47.73
13387;BME280;6763;48.524;9.044;2023-05-20T06:03:07;97758.75;;;19.40;47.65
13387;BME280;6763;48.524;9.044;2023-05-20T06:05:32;97757.56;;;19.45;47.61
13387;BME280;6763;48.524;9.044;2023-05-20T06:07:57;97751.97;;;19.51;47.48
13387;BME280;6763;48.524;9.044;2023-05-20T06:10:23;97753.25;;;19.60;47.43
13387;BME280;6763;48.524;9.044;2023-05-20T06:12:48;97748.25;;;19.71;47.03
13387;BME280;6763;48.524;9.044;2023-05-20T06:15:13;97743.22;;;19.82;47.01
13387;BME280;6763;48.524;9.044;2023-05-20T06:17:39;97742.81;;;19.90;46.68
13387;BME280;6763;48.524;9.044;2023-05-20T06:20:05;97740.41;;;20.01;46.57
13387;BME280;6763;48.524;9.044;2023-05-20T06:22:30;97736.16;;;20.14;46.54
13387;BME280;6763;48.524;9.044;2023-05-20T06:24:56;97729.13;;;20.30;46.20
13387;BME280;6763;48.524;9.044;2023-05-20T06:27:24;97736.84;;;20.47;45.91
13387;BME280;6763;48.524;9.044;2023-05-20T06:29:49;97738.38;;;20.65;45.54
13387;BME280;6763;48.524;9.044;2023-05-20T06:32:15;97739.28;;;20.80;45.64
13387;BME280;6763;48.524;9.044;2023-05-20T06:34:40;97730.34;;;20.96;45.09
13387;BME280;6763;48.524;9.044;2023-05-20T06:37:05;97727.94;;;21.08;44.36
13387;BME280;6763;48.524;9.044;2023-05-20T06:39:31;97722.78;;;21.06;44.33
13387;BME280;6763;48.524;9.044;2023-05-20T06:41:56;97719.69;;;21.14;44.31
13387;BME280;6763;48.524;9.044;2023-05-20T06:44:21;97716.47;;;21.23;44.14
13387;BME280;6763;48.524;9.044;2023-05-20T06:46:46;97724.72;;;21.31;44.06
13387;BME280;6763;48.524;9.044;2023-05-20T06:49:12;97727.84;;;21.37;43.42
13387;BME280;6763;48.524;9.044;2023-05-20T06:51:37;97720.88;;;21.36;43.41
13387;BME280;6763;48.524;9.044;2023-05-20T06:54:03;97706.97;;;21.34;43.37
13387;BME280;6763;48.524;9.044;2023-05-20T06:56:28;97710.50;;;21.47;43.35
13387;BME280;6763;48.524;9.044;2023-05-20T06:58:54;97714.69;;;21.64;43.11
13387;BME280;6763;48.524;9.044;2023-05-20T07:01:19;97712.03;;;21.78;42.78
13387;BME280;6763;48.524;9.044;2023-05-20T07:03:44;97703.16;;;21.93;42.44
13387;BME280;6763;48.524;9.044;2023-05-20T07:06:10;97699.81;;;22.04;41.96
13387;BME280;6763;48.524;9.044;2023-05-20T07:08:35;97692.66;;;22.18;41.88
13387;BME280;6763;48.524;9.044;2023-05-20T07:11:00;97693.75;;;22.29;41.67
13387;BME280;6763;48.524;9.044;2023-05-20T07:13:26;97697.91;;;22.45;41.48
13387;BME280;6763;48.524;9.044;2023-05-20T07:15:51;97699.19;;;22.65;40.90
13387;BME280;6763;48.524;9.044;2023-05-20T07:18:17;97701.53;;;22.82;40.78
13387;BME280;6763;48.524;9.044;2023-05-20T07:20:43;97708.59;;;22.94;40.30
13387;BME280;6763;48.524;9.044;2023-05-20T07:23:08;97702.59;;;22.92;39.76
13387;BME280;6763;48.524;9.044;2023-05-20T07:25:33;97699.22;;;22.90;40.07
13387;BME280;6763;48.524;9.044;2023-05-20T07:27:59;97698.78;;;22.96;39.34
13387;BME280;6763;48.524;9.044;2023-05-20T07:30:25;97699.94;;;22.92;39.41
13387;BME280;6763;48.524;9.044;2023-05-20T07:32:50;97690.66;;;22.99;39.62
13387;BME280;6763;48.524;9.044;2023-05-20T07:35:16;97685.16;;;23.02;39.19
13387;BME280;6763;48.524;9.044;2023-05-20T07:37:41;97681.56;;;23.16;39.32
13387;BME280;6763;48.524;9.044;2023-05-20T07:40:07;97667.59;;;23.26;38.56
13387;BME280;6763;48.524;9.044;2023-05-20T07:42:33;97661.66;;;23.23;38.67
13387;BME280;6763;48.524;9.044;2023-05-20T07:44:59;97659.25;;;23.20;38.91
13387;BME280;6763;48.524;9.044;2023-05-20T07:47:24;97657.03;;;23.26;38.57
13387;BME280;6763;48.524;9.044;2023-05-20T07:49:50;97653.19;;;23.30;38.21
13387;BME280;6763;48.524;9.044;2023-05-20T07:52:15;97657.78;;;23.16;38.07
13387;BME280;6763;48.524;9.044;2023-05-20T07:54:40;97666.16;;;22.97;38.34
13387;BME280;6763;48.524;9.044;2023-05-20T07:57:06;97663.19;;;23.02;38.19
13387;BME280;6763;48.524;9.044;2023-05-20T07:59:31;97666.34;;;23.07;38.18
13387;BME280;6763;48.524;9.044;2023-05-20T08:01:57;97666.66;;;23.15;37.49
13387;BME280;6763;48.524;9.044;2023-05-20T08:04:22;97672.06;;;23.13;37.68
13387;BME280;6763;48.524;9.044;2023-05-20T08:06:47;97684.72;;;23.21;37.73
13387;BME280;6763;48.524;9.044;2023-05-20T08:09:13;97681.72;;;23.25;37.28
13387;BME280;6763;48.524;9.044;2023-05-20T08:11:39;97687.88;;;23.26;37.09
13387;BME280;6763;48.524;9.044;2023-05-20T08:14:04;97684.38;;;23.25;37.11
13387;BME280;6763;48.524;9.044;2023-05-20T08:16:30;97683.44;;;23.26;37.09
13387;BME280;6763;48.524;9.044;2023-05-20T08:18:55;97684.50;;;23.36;37.21
13387;BME280;6763;48.524;9.044;2023-05-20T08:21:20;97689.69;;;23.62;37.03
13387;BME280;6763;48.524;9.044;2023-05-20T08:23:46;97691.91;;;23.91;36.67
13387;BME280;6763;48.524;9.044;2023-05-20T08:28:38;97685.16;;;24.46;35.48
13387;BME280;6763;48.524;9.044;2023-05-20T08:31:03;97683.41;;;24.68;35.57
13387;BME280;6763;48.524;9.044;2023-05-20T08:33:29;97673.69;;;24.91;34.89
13387;BME280;6763;48.524;9.044;2023-05-20T08:35:54;97669.84;;;25.06;34.72
13387;BME280;6763;48.524;9.044;2023-05-20T08:38:19;97678.03;;;25.14;34.10
13387;BME280;6763;48.524;9.044;2023-05-20T08:40:45;97671.53;;;25.18;34.07
13387;BME280;6763;48.524;9.044;2023-05-20T08:43:10;97663.22;;;25.12;34.01
13387;BME280;6763;48.524;9.044;2023-05-20T08:45:37;97663.84;;;25.04;34.48
13387;BME280;6763;48.524;9.044;2023-05-20T08:48:02;97667.81;;;25.10;34.28
13387;BME280;6763;48.524;9.044;2023-05-20T08:50:31;97666.13;;;25.20;34.42
13387;BME280;6763;48.524;9.044;2023-05-20T08:52:58;97660.69;;;25.21;34.16
13387;BME280;6763;48.524;9.044;2023-05-20T08:55:37;97664.31;;;25.32;34.34
13387;BME280;6763;48.524;9.044;2023-05-20T08:58:06;97659.31;;;25.60;33.88
13387;BME280;6763;48.524;9.044;2023-05-20T09:00:31;97654.44;;;25.87;33.43
13387;BME280;6763;48.524;9.044;2023-05-20T09:02:58;97655.09;;;26.01;32.93
13387;BME280;6763;48.524;9.044;2023-05-20T09:05:25;97662.22;;;26.00;32.80
13387;BME280;6763;48.524;9.044;2023-05-20T09:07:51;97654.16;;;26.02;32.83
13387;BME280;6763;48.524;9.044;2023-05-20T09:10:17;97657.13;;;26.08;32.60
13387;BME280;6763;48.524;9.044;2023-05-20T09:12:43;97657.38;;;26.05;32.19
13387;BME280;6763;48.524;9.044;2023-05-20T09:15:08;97653.88;;;26.05;32.10
13387;BME280;6763;48.524;9.044;2023-05-20T09:17:34;97652.19;;;26.04;32.45
13387;BME280;6763;48.524;9.044;2023-05-20T09:20:00;97641.34;;;26.07;31.98
13387;BME280;6763;48.524;9.044;2023-05-20T09:22:27;97655.59;;;25.95;32.50
13387;BME280;6763;48.524;9.044;2023-05-20T09:24:53;97653.94;;;25.94;32.44
13387;BME280;6763;48.524;9.044;2023-05-20T09:27:20;97655.66;;;25.83;32.60
13387;BME280;6763;48.524;9.044;2023-05-20T09:29:49;97651.06;;;25.85;32.89
13387;BME280;6763;48.524;9.044;2023-05-20T09:32:16;97648.44;;;26.06;32.51
13387;BME280;6763;48.524;9.044;2023-05-20T09:34:42;97650.50;;;26.34;31.94
13387;BME280;6763;48.524;9.044;2023-05-20T09:37:10;97639.75;;;26.36;31.45
13387;BME280;6763;48.524;9.044;2023-05-20T09:39:56;97637.28;;;26.23;31.74
13387;BME280;6763;48.524;9.044;2023-05-20T09:42:27;97632.38;;;26.39;31.94
13387;BME280;6763;48.524;9.044;2023-05-20T09:44:53;97639.16;;;26.74;31.49
13387;BME280;6763;48.524;9.044;2023-05-20T09:47:19;97634.53;;;26.76;31.24
13387;BME280;6763;48.524;9.044;2023-05-20T09:49:45;97627.31;;;26.78;30.97
13387;BME280;6763;48.524;9.044;2023-05-20T09:52:12;97628.06;;;26.89;30.94
13387;BME280;6763;48.524;9.044;2023-05-20T09:54:39;97633.63;;;27.17;30.83
13387;BME280;6763;48.524;9.044;2023-05-20T09:57:06;97627.88;;;27.12;30.52
13387;BME280;6763;48.524;9.044;2023-05-20T09:59:32;97635.91;;;26.91;30.75
13387;BME280;6763;48.524;9.044;2023-05-20T10:01:59;97633.63;;;26.77;30.57
13387;BME280;6763;48.524;9.044;2023-05-20T10:04:26;97622.22;;;26.44;31.08
13387;BME280;6763;48.524;9.044;2023-05-20T10:15:09;97620.84;;;27.01;30.77
13387;BME280;6763;48.524;9.044;2023-05-20T10:17:59;97618.16;;;27.31;30.68
13387;BME280;6763;48.524;9.044;2023-05-20T10:20:28;97617.34;;;27.50;30.51
13387;BME280;6763;48.524;9.044;2023-05-20T10:22:56;97619.22;;;27.68;30.07
13387;BME280;6763;48.524;9.044;2023-05-20T10:25:27;97617.53;;;27.67;29.92
13387;BME280;6763;48.524;9.044;2023-05-20T10:28:05;97608.72;;;27.96;30.14
13387;BME280;6763;48.524;9.044;2023-05-20T10:30:32;97616.88;;;28.33;29.45
13387;BME280;6763;48.524;9.044;2023-05-20T10:33:03;97608.69;;;28.63;28.59
13387;BME280;6763;48.524;9.044;2023-05-20T10:35:29;97609.38;;;28.65;28.71
13387;BME280;6763;48.524;9.044;2023-05-20T10:38:07;97602.22;;;28.65;28.35
13387;BME280;6763;48.524;9.044;2023-05-20T10:40:32;97608.69;;;28.53;28.81
13387;BME280;6763;48.524;9.044;2023-05-20T10:43:08;97601.50;;;28.54;28.48
13387;BME280;6763;48.524;9.044;2023-05-20T10:45:34;97589.44;;;28.59;28.32
13387;BME280;6763;48.524;9.044;2023-05-20T10:48:01;97586.81;;;28.50;28.46
13387;BME280;6763;48.524;9.044;2023-05-20T10:50:34;97582.88;;;28.54;28.03
13387;BME280;6763;48.524;9.044;2023-05-20T10:53:04;97577.47;;;28.36;28.40
13387;BME280;6763;48.524;9.044;2023-05-20T10:55:37;97582.75;;;28.46;28.59
13387;BME280;6763;48.524;9.044;2023-05-20T10:58:04;97570.38;;;28.73;28.41
13387;BME280;6763;48.524;9.044;2023-05-20T11:00:30;97580.94;;;28.92;28.13
13387;BME280;6763;48.524;9.044;2023-05-20T11:02:56;97567.44;;;28.67;27.21
13387;BME280;6763;48.524;9.044;2023-05-20T11:05:22;97574.94;;;28.25;27.96
13387;BME280;6763;48.524;9.044;2023-05-20T11:07:47;97569.63;;;28.25;28.67
13387;BME280;6763;48.524;9.044;2023-05-20T11:10:13;97560.91;;;28.42;28.23
13387;BME280;6763;48.524;9.044;2023-05-20T11:12:38;97552.88;;;28.52;28.12
13387;BME280;6763;48.524;9.044;2023-05-20T11:15:04;97550.31;;;28.69;28.06
13387;BME280;6763;48.524;9.044;2023-05-20T11:17:29;97554.13;;;28.67;28.21
13387;BME280;6763;48.524;9.044;2023-05-20T11:19:55;97558.09;;;28.44;27.98
13387;BME280;6763;48.524;9.044;2023-05-20T11:22:24;97549.88;;;28.37;28.42
13387;BME280;6763;48.524;9.044;2023-05-20T11:24:50;97544.31;;;28.58;28.54
13387;BME280;6763;48.524;9.044;2023-05-20T11:27:15;97543.47;;;28.67;27.96
13387;BME280;6763;48.524;9.044;2023-05-20T11:29:41;97547.53;;;28.61;28.03
13387;BME280;6763;48.524;9.044;2023-05-20T11:32:06;97548.66;;;28.68;28.12
13387;BME280;6763;48.524;9.044;2023-05-20T11:34:33;97546.56;;;28.62;27.75
13387;BME280;6763;48.524;9.044;2023-05-20T11:36:59;97536.47;;;28.66;28.08
13387;BME280;6763;48.524;9.044;2023-05-20T11:39:25;97545.09;;;28.77;27.79
13387;BME280;6763;48.524;9.044;2023-05-20T11:41:53;97535.91;;;29.17;27.45
13387;BME280;6763;48.524;9.044;2023-05-20T11:44:19;97525.38;;;29.95;26.81
13387;BME280;6763;48.524;9.044;2023-05-20T11:46:46;97531.50;;;30.57;26.04
13387;BME280;6763;48.524;9.044;2023-05-20T11:49:12;97539.38;;;31.00;25.83
13387;BME280;6763;48.524;9.044;2023-05-20T11:51:38;97534.03;;;31.50;25.10
13387;BME280;6763;48.524;9.044;2023-05-20T11:54:05;97529.59;;;31.99;24.71
13387;BME280;6763;48.524;9.044;2023-05-20T11:56:35;97515.66;;;32.12;23.97
13387;BME280;6763;48.524;9.044;2023-05-20T11:59:02;97521.53;;;31.99;24.60
13387;BME280;6763;48.524;9.044;2023-05-20T12:01:32;97515.84;;;32.10;24.59
13387;BME280;6763;48.524;9.044;2023-05-20T12:03:58;97512.63;;;32.31;23.89
13387;BME280;6763;48.524;9.044;2023-05-20T12:06:23;97507.81;;;32.18;24.10
13387;BME280;6763;48.524;9.044;2023-05-20T12:08:49;97506.31;;;32.16;23.87
13387;BME280;6763;48.524;9.044;2023-05-20T12:11:14;97504.47;;;32.16;24.25
13387;BME280;6763;48.524;9.044;2023-05-20T12:13:39;97492.94;;;32.08;24.04
13387;BME280;6763;48.524;9.044;2023-05-20T12:16:05;97490.56;;;31.97;23.92
13387;BME280;6763;48.524;9.044;2023-05-20T12:18:31;97497.94;;;31.54;24.09
13387;BME280;6763;48.524;9.044;2023-05-20T12:20:57;97489.81;;;31.22;24.58
13387;BME280;6763;48.524;9.044;2023-05-20T12:23:23;97494.34;;;31.29;24.74
13387;BME280;6763;48.524;9.044;2023-05-20T12:25:48;97485.44;;;31.13;24.41
13387;BME280;6763;48.524;9.044;2023-05-20T12:28:14;97495.16;;;30.72;25.05
13387;BME280;6763;48.524;9.044;2023-05-20T12:30:41;97494.59;;;30.60;25.51
13387;BME280;6763;48.524;9.044;2023-05-20T12:33:06;97495.09;;;30.64;25.08
13387;BME280;6763;48.524;9.044;2023-05-20T12:35:40;97500.31;;;30.65;25.62
13387;BME280;6763;48.524;9.044;2023-05-20T12:38:06;97487.88;;;30.90;25.54
13387;BME280;6763;48.524;9.044;2023-05-20T12:40:32;97492.84;;;31.27;24.92
13387;BME280;6763;48.524;9.044;2023-05-20T12:42:59;97480.34;;;31.44;24.77
13387;BME280;6763;48.524;9.044;2023-05-20T12:45:25;97478.97;;;31.40;24.88
13387;BME280;6763;48.524;9.044;2023-05-20T12:47:50;97483.38;;;31.49;24.89
13387;BME280;6763;48.524;9.044;2023-05-20T12:50:15;97485.38;;;31.87;24.37
13387;BME280;6763;48.524;9.044;2023-05-20T12:52:41;97482.09;;;32.56;23.37
13387;BME280;6763;48.524;9.044;2023-05-20T12:55:07;97471.97;;;33.13;22.49
13387;BME280;6763;48.524;9.044;2023-05-20T12:57:42;97469.44;;;32.81;22.78
13387;BME280;6763;48.524;9.044;2023-05-20T13:00:08;97468.00;;;32.70;22.78
13387;BME280;6763;48.524;9.044;2023-05-20T13:02:35;97466.31;;;33.00;23.07
13387;BME280;6763;48.524;9.044;2023-05-20T13:05:01;97461.47;;;33.57;21.85
13387;BME280;6763;48.524;9.044;2023-05-20T13:07:26;97447.09;;;34.10;21.65
13387;BME280;6763;48.524;9.044;2023-05-20T13:09:52;97444.88;;;34.13;20.54
13387;BME280;6763;48.524;9.044;2023-05-20T13:12:18;97451.38;;;33.82;21.33
13387;BME280;6763;48.524;9.044;2023-05-20T13:14:43;97443.44;;;33.65;21.58
13387;BME280;6763;48.524;9.044;2023-05-20T13:17:10;97446.38;;;33.33;21.95